Terminal Aerodrome Forecast
Issued by NWS

Current Version | Previous Version | Graphics & Text | Print | Product List | Glossary On
Versions: 1 2 3 4 5 6 7 8 9 10 11 12 13 14 15 16 17 18 19 20 21 22 23 24 25 26 27 28 29 30 31 32 33 34 35 36 37 38 39 40 41 42
000
FTUS41 KRNK 290801 AAA
TAFLWB
TAF AMD
KLWB 290801Z 2908/3006 02004KT P6SM SKC
      TEMPO 2908/2912 2SM BR SCT002
     FM291400 VRB03KT P6SM BKN025
     FM291700 17005KT 5SM SHRA VCTS BKN050CB
     FM300000 VRB03KT P6SM SCT035 BKN080=

USA.gov is the U.S. government's official web portal to all federal, state and local government web resources and services.